sensor_id;sensor_type;location;lat;lon;timestamp;P1;durP1;ratioP1;P2;durP2;ratioP2
6342;SDS011;3204;42.698;23.298;2023-05-20T00:02:03;13.80;;;12.48;;
6342;SDS011;3204;42.698;23.298;2023-05-20T00:04:28;15.20;;;12.77;;
6342;SDS011;3204;42.698;23.298;2023-05-20T00:06:54;14.75;;;12.88;;
6342;SDS011;3204;42.698;23.298;2023-05-20T00:09:20;14.30;;;12.82;;
6342;SDS011;3204;42.698;23.298;2023-05-20T00:11:45;15.88;;;12.90;;
6342;SDS011;3204;42.698;23.298;2023-05-20T00:14:11;19.17;;;12.27;;
6342;SDS011;3204;42.698;23.298;2023-05-20T00:16:36;15.57;;;12.80;;
6342;SDS011;3204;42.698;23.298;2023-05-20T00:19:02;16.13;;;12.93;;
6342;SDS011;3204;42.698;23.298;2023-05-20T00:21:27;18.23;;;13.75;;
6342;SDS011;3204;42.698;23.298;2023-05-20T00:23:53;19.02;;;14.65;;
6342;SDS011;3204;42.698;23.298;2023-05-20T00:26:20;20.58;;;14.73;;
6342;SDS011;3204;42.698;23.298;2023-05-20T00:28:45;22.65;;;15.13;;
6342;SDS011;3204;42.698;23.298;2023-05-20T00:31:11;20.25;;;15.18;;
6342;SDS011;3204;42.698;23.298;2023-05-20T00:33:36;22.15;;;15.82;;
6342;SDS011;3204;42.698;23.298;2023-05-20T00:36:02;25.42;;;14.40;;
6342;SDS011;3204;42.698;23.298;2023-05-20T00:38:28;24.77;;;14.43;;
6342;SDS011;3204;42.698;23.298;2023-05-20T00:40:53;20.48;;;15.05;;
6342;SDS011;3204;42.698;23.298;2023-05-20T00:43:19;16.98;;;13.77;;
6342;SDS011;3204;42.698;23.298;2023-05-20T00:45:45;21.77;;;13.75;;
6342;SDS011;3204;42.698;23.298;2023-05-20T00:48:11;15.55;;;13.18;;
6342;SDS011;3204;42.698;23.298;2023-05-20T00:50:37;18.48;;;13.40;;
6342;SDS011;3204;42.698;23.298;2023-05-20T00:53:03;16.48;;;13.45;;
6342;SDS011;3204;42.698;23.298;2023-05-20T00:55:30;17.65;;;13.23;;
6342;SDS011;3204;42.698;23.298;2023-05-20T00:57:56;22.33;;;13.07;;
6342;SDS011;3204;42.698;23.298;2023-05-20T01:00:22;12.88;;;11.57;;
6342;SDS011;3204;42.698;23.298;2023-05-20T01:02:47;17.08;;;12.57;;
6342;SDS011;3204;42.698;23.298;2023-05-20T01:05:13;15.50;;;11.52;;
6342;SDS011;3204;42.698;23.298;2023-05-20T01:07:38;12.80;;;11.38;;
6342;SDS011;3204;42.698;23.298;2023-05-20T01:10:04;12.93;;;11.55;;
6342;SDS011;3204;42.698;23.298;2023-05-20T01:12:33;12.88;;;11.57;;
6342;SDS011;3204;42.698;23.298;2023-05-20T01:15:12;12.77;;;11.13;;
6342;SDS011;3204;42.698;23.298;2023-05-20T01:17:42;12.20;;;11.10;;
6342;SDS011;3204;42.698;23.298;2023-05-20T01:20:10;12.25;;;11.05;;
6342;SDS011;3204;42.698;23.298;2023-05-20T01:22:38;13.00;;;11.70;;
6342;SDS011;3204;42.698;23.298;2023-05-20T01:25:11;12.88;;;10.90;;
6342;SDS011;3204;42.698;23.298;2023-05-20T01:27:36;14.80;;;10.95;;
6342;SDS011;3204;42.698;23.298;2023-05-20T01:30:02;12.20;;;10.93;;
6342;SDS011;3204;42.698;23.298;2023-05-20T01:32:30;15.65;;;12.10;;
6342;SDS011;3204;42.698;23.298;2023-05-20T01:34:58;22.52;;;12.35;;
6342;SDS011;3204;42.698;23.298;2023-05-20T01:37:25;14.40;;;11.90;;
6342;SDS011;3204;42.698;23.298;2023-05-20T01:39:52;18.42;;;12.45;;
6342;SDS011;3204;42.698;23.298;2023-05-20T01:42:19;15.70;;;12.07;;
6342;SDS011;3204;42.698;23.298;2023-05-20T01:44:45;16.63;;;12.48;;
6342;SDS011;3204;42.698;23.298;2023-05-20T01:47:10;22.25;;;11.55;;
6342;SDS011;3204;42.698;23.298;2023-05-20T01:49:36;13.15;;;11.77;;
6342;SDS011;3204;42.698;23.298;2023-05-20T01:52:02;15.10;;;11.95;;
6342;SDS011;3204;42.698;23.298;2023-05-20T01:54:28;14.43;;;12.05;;
6342;SDS011;3204;42.698;23.298;2023-05-20T01:56:54;16.00;;;11.35;;
6342;SDS011;3204;42.698;23.298;2023-05-20T01:59:20;12.80;;;11.18;;
6342;SDS011;3204;42.698;23.298;2023-05-20T02:01:45;16.13;;;11.30;;
6342;SDS011;3204;42.698;23.298;2023-05-20T02:04:11;12.85;;;11.48;;
6342;SDS011;3204;42.698;23.298;2023-05-20T02:06:36;16.45;;;10.88;;
6342;SDS011;3204;42.698;23.298;2023-05-20T02:09:02;15.73;;;11.77;;
6342;SDS011;3204;42.698;23.298;2023-05-20T02:11:27;16.35;;;11.52;;
6342;SDS011;3204;42.698;23.298;2023-05-20T02:13:53;19.85;;;11.55;;
6342;SDS011;3204;42.698;23.298;2023-05-20T02:16:18;14.48;;;11.82;;
6342;SDS011;3204;42.698;23.298;2023-05-20T02:18:44;16.73;;;11.32;;
6342;SDS011;3204;42.698;23.298;2023-05-20T02:21:09;15.52;;;11.88;;
6342;SDS011;3204;42.698;23.298;2023-05-20T02:23:34;14.40;;;11.75;;
6342;SDS011;3204;42.698;23.298;2023-05-20T02:26:00;16.88;;;12.07;;
6342;SDS011;3204;42.698;23.298;2023-05-20T02:28:26;13.48;;;11.65;;
6342;SDS011;3204;42.698;23.298;2023-05-20T02:30:51;22.63;;;12.48;;
6342;SDS011;3204;42.698;23.298;2023-05-20T02:33:17;17.10;;;11.50;;
6342;SDS011;3204;42.698;23.298;2023-05-20T02:35:43;16.65;;;11.60;;
6342;SDS011;3204;42.698;23.298;2023-05-20T02:38:11;14.65;;;11.63;;
6342;SDS011;3204;42.698;23.298;2023-05-20T02:40:37;14.93;;;11.63;;
6342;SDS011;3204;42.698;23.298;2023-05-20T02:43:02;20.95;;;11.75;;
6342;SDS011;3204;42.698;23.298;2023-05-20T02:45:28;23.35;;;12.00;;
6342;SDS011;3204;42.698;23.298;2023-05-20T02:47:54;14.98;;;11.90;;
6342;SDS011;3204;42.698;23.298;2023-05-20T02:50:19;15.43;;;11.57;;
6342;SDS011;3204;42.698;23.298;2023-05-20T02:52:44;21.15;;;11.80;;
6342;SDS011;3204;42.698;23.298;2023-05-20T02:55:11;13.60;;;11.52;;
6342;SDS011;3204;42.698;23.298;2023-05-20T02:57:37;12.05;;;10.77;;
6342;SDS011;3204;42.698;23.298;2023-05-20T03:00:06;15.13;;;12.27;;
6342;SDS011;3204;42.698;23.298;2023-05-20T03:02:35;14.25;;;11.10;;
6342;SDS011;3204;42.698;23.298;2023-05-20T03:05:01;18.90;;;11.20;;
6342;SDS011;3204;42.698;23.298;2023-05-20T03:07:29;17.65;;;11.45;;
6342;SDS011;3204;42.698;23.298;2023-05-20T03:09:55;19.98;;;12.73;;
6342;SDS011;3204;42.698;23.298;2023-05-20T03:12:23;19.02;;;12.60;;
6342;SDS011;3204;42.698;23.298;2023-05-20T03:14:50;13.35;;;10.90;;
6342;SDS011;3204;42.698;23.298;2023-05-20T03:17:19;16.17;;;11.80;;
6342;SDS011;3204;42.698;23.298;2023-05-20T03:19:47;14.27;;;11.02;;
6342;SDS011;3204;42.698;23.298;2023-05-20T03:22:12;24.52;;;13.23;;
6342;SDS011;3204;42.698;23.298;2023-05-20T03:24:38;33.67;;;14.38;;
6342;SDS011;3204;42.698;23.298;2023-05-20T03:27:04;44.72;;;16.25;;
6342;SDS011;3204;42.698;23.298;2023-05-20T03:29:30;38.90;;;14.73;;
6342;SDS011;3204;42.698;23.298;2023-05-20T03:31:57;55.80;;;15.40;;
6342;SDS011;3204;42.698;23.298;2023-05-20T03:34:23;28.48;;;14.15;;
6342;SDS011;3204;42.698;23.298;2023-05-20T03:36:49;17.00;;;13.32;;
6342;SDS011;3204;42.698;23.298;2023-05-20T03:39:15;35.50;;;15.40;;
6342;SDS011;3204;42.698;23.298;2023-05-20T03:41:41;29.83;;;13.70;;
6342;SDS011;3204;42.698;23.298;2023-05-20T03:44:06;46.05;;;14.35;;
6342;SDS011;3204;42.698;23.298;2023-05-20T03:46:32;42.20;;;14.10;;
6342;SDS011;3204;42.698;23.298;2023-05-20T03:48:58;31.55;;;14.77;;
6342;SDS011;3204;42.698;23.298;2023-05-20T03:51:25;27.88;;;13.82;;
6342;SDS011;3204;42.698;23.298;2023-05-20T03:53:52;32.95;;;14.25;;
6342;SDS011;3204;42.698;23.298;2023-05-20T03:56:17;29.73;;;13.10;;
6342;SDS011;3204;42.698;23.298;2023-05-20T03:58:43;16.00;;;12.57;;
6342;SDS011;3204;42.698;23.298;2023-05-20T04:01:08;18.23;;;12.35;;
6342;SDS011;3204;42.698;23.298;2023-05-20T04:03:37;14.00;;;12.45;;
6342;SDS011;3204;42.698;23.298;2023-05-20T04:06:04;22.55;;;13.40;;
6342;SDS011;3204;42.698;23.298;2023-05-20T04:08:29;18.95;;;13.07;;
6342;SDS011;3204;42.698;23.298;2023-05-20T04:10:55;22.80;;;12.63;;
6342;SDS011;3204;42.698;23.298;2023-05-20T04:13:23;16.50;;;13.38;;
6342;SDS011;3204;42.698;23.298;2023-05-20T04:15:51;25.63;;;15.05;;
6342;SDS011;3204;42.698;23.298;2023-05-20T04:18:17;22.77;;;16.02;;
6342;SDS011;3204;42.698;23.298;2023-05-20T04:20:43;25.25;;;16.02;;
6342;SDS011;3204;42.698;23.298;2023-05-20T04:23:10;25.40;;;16.38;;
6342;SDS011;3204;42.698;23.298;2023-05-20T04:25:36;34.95;;;17.15;;
6342;SDS011;3204;42.698;23.298;2023-05-20T04:28:01;24.90;;;15.77;;
6342;SDS011;3204;42.698;23.298;2023-05-20T04:30:27;26.02;;;16.15;;
6342;SDS011;3204;42.698;23.298;2023-05-20T04:32:52;23.30;;;15.57;;
6342;SDS011;3204;42.698;23.298;2023-05-20T04:35:18;21.20;;;15.07;;
6342;SDS011;3204;42.698;23.298;2023-05-20T04:37:44;24.27;;;14.98;;
6342;SDS011;3204;42.698;23.298;2023-05-20T04:40:12;20.98;;;15.27;;
6342;SDS011;3204;42.698;23.298;2023-05-20T04:42:38;25.73;;;15.95;;
6342;SDS011;3204;42.698;23.298;2023-05-20T04:45:04;18.85;;;15.07;;
6342;SDS011;3204;42.698;23.298;2023-05-20T04:47:30;21.38;;;15.77;;
6342;SDS011;3204;42.698;23.298;2023-05-20T04:50:02;21.27;;;15.75;;
6342;SDS011;3204;42.698;23.298;2023-05-20T04:52:37;29.80;;;16.33;;
6342;SDS011;3204;42.698;23.298;2023-05-20T04:55:07;26.70;;;16.75;;
6342;SDS011;3204;42.698;23.298;2023-05-20T04:57:36;26.80;;;15.85;;
6342;SDS011;3204;42.698;23.298;2023-05-20T05:00:05;27.38;;;15.88;;
6342;SDS011;3204;42.698;23.298;2023-05-20T05:02:32;18.00;;;15.10;;
6342;SDS011;3204;42.698;23.298;2023-05-20T05:04:58;19.73;;;13.68;;
6342;SDS011;3204;42.698;23.298;2023-05-20T05:07:23;18.95;;;13.73;;
6342;SDS011;3204;42.698;23.298;2023-05-20T05:09:49;21.77;;;15.07;;
6342;SDS011;3204;42.698;23.298;2023-05-20T05:12:15;23.73;;;13.73;;
6342;SDS011;3204;42.698;23.298;2023-05-20T05:14:40;20.17;;;13.52;;
6342;SDS011;3204;42.698;23.298;2023-05-20T05:17:06;18.73;;;14.93;;
6342;SDS011;3204;42.698;23.298;2023-05-20T05:19:31;18.02;;;14.07;;
6342;SDS011;3204;42.698;23.298;2023-05-20T05:21:57;21.42;;;14.63;;
6342;SDS011;3204;42.698;23.298;2023-05-20T05:24:22;19.35;;;14.90;;
6342;SDS011;3204;42.698;23.298;2023-05-20T05:26:51;21.42;;;15.38;;
6342;SDS011;3204;42.698;23.298;2023-05-20T05:29:18;24.63;;;14.15;;
6342;SDS011;3204;42.698;23.298;2023-05-20T05:31:43;16.25;;;13.30;;
6342;SDS011;3204;42.698;23.298;2023-05-20T05:34:09;15.00;;;13.60;;
6342;SDS011;3204;42.698;23.298;2023-05-20T05:36:34;20.95;;;14.30;;
6342;SDS011;3204;42.698;23.298;2023-05-20T05:38:59;18.38;;;15.18;;
6342;SDS011;3204;42.698;23.298;2023-05-20T05:41:25;19.65;;;15.20;;
6342;SDS011;3204;42.698;23.298;2023-05-20T05:43:51;23.48;;;16.10;;
6342;SDS011;3204;42.698;23.298;2023-05-20T05:46:16;26.05;;;16.15;;
6342;SDS011;3204;42.698;23.298;2023-05-20T05:48:42;22.58;;;16.77;;
6342;SDS011;3204;42.698;23.298;2023-05-20T05:51:13;24.08;;;16.95;;
6342;SDS011;3204;42.698;23.298;2023-05-20T05:53:38;20.45;;;16.52;;
6342;SDS011;3204;42.698;23.298;2023-05-20T05:56:04;27.17;;;18.13;;
6342;SDS011;3204;42.698;23.298;2023-05-20T05:58:30;26.77;;;18.55;;
6342;SDS011;3204;42.698;23.298;2023-05-20T06:00:57;21.15;;;18.17;;
6342;SDS011;3204;42.698;23.298;2023-05-20T06:03:22;22.10;;;18.38;;
6342;SDS011;3204;42.698;23.298;2023-05-20T06:05:48;27.20;;;17.38;;
6342;SDS011;3204;42.698;23.298;2023-05-20T06:08:13;22.77;;;16.15;;
6342;SDS011;3204;42.698;23.298;2023-05-20T06:10:39;20.65;;;14.63;;
6342;SDS011;3204;42.698;23.298;2023-05-20T06:13:05;17.00;;;15.20;;
6342;SDS011;3204;42.698;23.298;2023-05-20T06:15:30;12.70;;;11.57;;
6342;SDS011;3204;42.698;23.298;2023-05-20T06:17:56;13.32;;;11.10;;
6342;SDS011;3204;42.698;23.298;2023-05-20T06:20:21;16.42;;;11.90;;
6342;SDS011;3204;42.698;23.298;2023-05-20T06:22:47;13.73;;;12.23;;
6342;SDS011;3204;42.698;23.298;2023-05-20T06:25:13;12.65;;;11.27;;
6342;SDS011;3204;42.698;23.298;2023-05-20T06:27:38;13.07;;;11.40;;
6342;SDS011;3204;42.698;23.298;2023-05-20T06:30:04;11.95;;;10.95;;
6342;SDS011;3204;42.698;23.298;2023-05-20T06:32:30;11.18;;;10.38;;
6342;SDS011;3204;42.698;23.298;2023-05-20T06:34:55;13.15;;;10.88;;
6342;SDS011;3204;42.698;23.298;2023-05-20T06:37:21;13.98;;;10.30;;
6342;SDS011;3204;42.698;23.298;2023-05-20T06:39:50;13.50;;;11.18;;
6342;SDS011;3204;42.698;23.298;2023-05-20T06:42:18;13.77;;;11.15;;
6342;SDS011;3204;42.698;23.298;2023-05-20T06:44:45;12.68;;;10.73;;
6342;SDS011;3204;42.698;23.298;2023-05-20T06:47:12;11.02;;;9.93;;
6342;SDS011;3204;42.698;23.298;2023-05-20T06:49:38;10.40;;;9.40;;
6342;SDS011;3204;42.698;23.298;2023-05-20T06:52:04;9.13;;;8.35;;
6342;SDS011;3204;42.698;23.298;2023-05-20T06:54:30;10.07;;;9.05;;
6342;SDS011;3204;42.698;23.298;2023-05-20T06:56:58;13.32;;;9.43;;
6342;SDS011;3204;42.698;23.298;2023-05-20T06:59:23;10.25;;;9.45;;
6342;SDS011;3204;42.698;23.298;2023-05-20T07:01:49;10.18;;;9.30;;
6342;SDS011;3204;42.698;23.298;2023-05-20T07:04:15;13.65;;;8.93;;
6342;SDS011;3204;42.698;23.298;2023-05-20T07:06:40;11.18;;;8.57;;
6342;SDS011;3204;42.698;23.298;2023-05-20T07:09:06;9.68;;;8.88;;
6342;SDS011;3204;42.698;23.298;2023-05-20T07:11:31;10.32;;;8.82;;
6342;SDS011;3204;42.698;23.298;2023-05-20T07:13:57;10.23;;;9.27;;
6342;SDS011;3204;42.698;23.298;2023-05-20T07:16:22;8.65;;;7.80;;
6342;SDS011;3204;42.698;23.298;2023-05-20T07:18:48;10.85;;;7.53;;
6342;SDS011;3204;42.698;23.298;2023-05-20T07:21:13;8.48;;;7.20;;
6342;SDS011;3204;42.698;23.298;2023-05-20T07:23:39;9.27;;;7.30;;
6342;SDS011;3204;42.698;23.298;2023-05-20T07:26:04;9.07;;;6.95;;
6342;SDS011;3204;42.698;23.298;2023-05-20T07:28:30;8.45;;;7.65;;
6342;SDS011;3204;42.698;23.298;2023-05-20T07:30:56;7.40;;;6.80;;
6342;SDS011;3204;42.698;23.298;2023-05-20T07:33:21;8.10;;;7.50;;
6342;SDS011;3204;42.698;23.298;2023-05-20T07:35:47;7.22;;;6.72;;
6342;SDS011;3204;42.698;23.298;2023-05-20T07:38:13;8.10;;;6.53;;
6342;SDS011;3204;42.698;23.298;2023-05-20T07:40:38;8.25;;;6.43;;
6342;SDS011;3204;42.698;23.298;2023-05-20T07:43:05;6.93;;;6.50;;
6342;SDS011;3204;42.698;23.298;2023-05-20T07:45:34;6.90;;;6.50;;
6342;SDS011;3204;42.698;23.298;2023-05-20T07:48:00;7.65;;;6.95;;
6342;SDS011;3204;42.698;23.298;2023-05-20T07:50:26;6.80;;;6.30;;
6342;SDS011;3204;42.698;23.298;2023-05-20T07:52:51;7.03;;;6.53;;
6342;SDS011;3204;42.698;23.298;2023-05-20T07:55:17;8.73;;;7.30;;
6342;SDS011;3204;42.698;23.298;2023-05-20T07:57:42;7.00;;;6.50;;
6342;SDS011;3204;42.698;23.298;2023-05-20T08:00:08;11.70;;;9.75;;
6342;SDS011;3204;42.698;23.298;2023-05-20T08:02:35;7.70;;;7.10;;
6342;SDS011;3204;42.698;23.298;2023-05-20T08:05:01;7.95;;;6.57;;
6342;SDS011;3204;42.698;23.298;2023-05-20T08:07:26;7.65;;;6.93;;
6342;SDS011;3204;42.698;23.298;2023-05-20T08:09:52;7.30;;;6.85;;
6342;SDS011;3204;42.698;23.298;2023-05-20T08:12:17;7.15;;;6.70;;
6342;SDS011;3204;42.698;23.298;2023-05-20T08:14:43;7.70;;;7.15;;
6342;SDS011;3204;42.698;23.298;2023-05-20T08:17:09;8.55;;;7.70;;
6342;SDS011;3204;42.698;23.298;2023-05-20T08:19:34;8.00;;;7.28;;
6342;SDS011;3204;42.698;23.298;2023-05-20T08:22:00;8.20;;;7.53;;
6342;SDS011;3204;42.698;23.298;2023-05-20T08:24:26;9.02;;;7.80;;
6342;SDS011;3204;42.698;23.298;2023-05-20T08:26:51;6.75;;;6.35;;
6342;SDS011;3204;42.698;23.298;2023-05-20T08:29:17;7.88;;;7.38;;
6342;SDS011;3204;42.698;23.298;2023-05-20T08:31:43;7.07;;;6.68;;
6342;SDS011;3204;42.698;23.298;2023-05-20T08:34:08;7.75;;;7.25;;
6342;SDS011;3204;42.698;23.298;2023-05-20T08:36:34;7.45;;;6.95;;
6342;SDS011;3204;42.698;23.298;2023-05-20T08:38:59;7.10;;;6.55;;
6342;SDS011;3204;42.698;23.298;2023-05-20T08:41:25;7.47;;;6.97;;
6342;SDS011;3204;42.698;23.298;2023-05-20T08:43:51;7.53;;;7.13;;
6342;SDS011;3204;42.698;23.298;2023-05-20T08:46:18;7.80;;;7.18;;
6342;SDS011;3204;42.698;23.298;2023-05-20T08:48:46;13.70;;;7.50;;
6342;SDS011;3204;42.698;23.298;2023-05-20T08:51:11;7.10;;;6.57;;
6342;SDS011;3204;42.698;23.298;2023-05-20T08:53:40;7.93;;;7.28;;
6342;SDS011;3204;42.698;23.298;2023-05-20T08:56:05;7.80;;;7.13;;
6342;SDS011;3204;42.698;23.298;2023-05-20T08:58:32;7.20;;;6.80;;
6342;SDS011;3204;42.698;23.298;2023-05-20T09:00:57;7.50;;;7.10;;
6342;SDS011;3204;42.698;23.298;2023-05-20T09:03:23;7.90;;;7.07;;
6342;SDS011;3204;42.698;23.298;2023-05-20T09:05:49;7.88;;;7.20;;
6342;SDS011;3204;42.698;23.298;2023-05-20T09:08:15;6.97;;;6.57;;
6342;SDS011;3204;42.698;23.298;2023-05-20T09:10:41;6.90;;;6.47;;
6342;SDS011;3204;42.698;23.298;2023-05-20T09:13:07;7.18;;;6.60;;
6342;SDS011;3204;42.698;23.298;2023-05-20T09:15:35;7.65;;;6.88;;
6342;SDS011;3204;42.698;23.298;2023-05-20T09:18:04;7.45;;;6.95;;
6342;SDS011;3204;42.698;23.298;2023-05-20T09:20:32;7.93;;;7.20;;
6342;SDS011;3204;42.698;23.298;2023-05-20T09:22:59;7.75;;;7.15;;
6342;SDS011;3204;42.698;23.298;2023-05-20T09:25:27;7.18;;;6.68;;
6342;SDS011;3204;42.698;23.298;2023-05-20T09:27:53;7.15;;;6.85;;
6342;SDS011;3204;42.698;23.298;2023-05-20T09:30:21;7.93;;;7.07;;
6342;SDS011;3204;42.698;23.298;2023-05-20T09:32:53;7.32;;;6.93;;
6342;SDS011;3204;42.698;23.298;2023-05-20T09:35:20;7.20;;;6.70;;
6342;SDS011;3204;42.698;23.298;2023-05-20T09:37:47;7.50;;;6.93;;
6342;SDS011;3204;42.698;23.298;2023-05-20T09:40:15;9.75;;;7.45;;
6342;SDS011;3204;42.698;23.298;2023-05-20T09:42:43;11.10;;;7.32;;
6342;SDS011;3204;42.698;23.298;2023-05-20T09:45:15;7.50;;;6.90;;
6342;SDS011;3204;42.698;23.298;2023-05-20T09:47:40;8.10;;;7.50;;
6342;SDS011;3204;42.698;23.298;2023-05-20T09:50:11;8.10;;;7.35;;
6342;SDS011;3204;42.698;23.298;2023-05-20T09:52:38;7.70;;;6.85;;
6342;SDS011;3204;42.698;23.298;2023-05-20T09:55:05;7.43;;;6.82;;
6342;SDS011;3204;42.698;23.298;2023-05-20T09:57:33;6.85;;;6.43;;
6342;SDS011;3204;42.698;23.298;2023-05-20T09:59:59;8.13;;;7.30;;
6342;SDS011;3204;42.698;23.298;2023-05-20T10:02:25;7.35;;;6.85;;
6342;SDS011;3204;42.698;23.298;2023-05-20T10:04:51;6.80;;;6.40;;
6342;SDS011;3204;42.698;23.298;2023-05-20T10:12:26;7.30;;;6.60;;
6342;SDS011;3204;42.698;23.298;2023-05-20T10:20:44;7.93;;;6.65;;
6342;SDS011;3204;42.698;23.298;2023-05-20T10:23:19;7.00;;;6.55;;
6342;SDS011;3204;42.698;23.298;2023-05-20T10:25:51;6.05;;;5.75;;
6342;SDS011;3204;42.698;23.298;2023-05-20T10:28:24;5.60;;;5.30;;
6342;SDS011;3204;42.698;23.298;2023-05-20T10:30:53;6.43;;;5.85;;
6342;SDS011;3204;42.698;23.298;2023-05-20T10:33:19;5.82;;;5.53;;
6342;SDS011;3204;42.698;23.298;2023-05-20T10:35:50;5.95;;;5.43;;
6342;SDS011;3204;42.698;23.298;2023-05-20T10:38:16;5.97;;;5.57;;
6342;SDS011;3204;42.698;23.298;2023-05-20T10:40:42;5.38;;;4.90;;
6342;SDS011;3204;42.698;23.298;2023-05-20T10:43:11;5.90;;;5.25;;
6342;SDS011;3204;42.698;23.298;2023-05-20T10:45:47;5.68;;;5.20;;
6342;SDS011;3204;42.698;23.298;2023-05-20T10:48:28;6.25;;;5.72;;
6342;SDS011;3204;42.698;23.298;2023-05-20T10:51:01;5.57;;;5.28;;
6342;SDS011;3204;42.698;23.298;2023-05-20T10:53:40;5.35;;;5.03;;
6342;SDS011;3204;42.698;23.298;2023-05-20T10:56:15;6.72;;;5.53;;
6342;SDS011;3204;42.698;23.298;2023-05-20T10:58:41;5.80;;;5.43;;
6342;SDS011;3204;42.698;23.298;2023-05-20T11:01:07;6.97;;;5.47;;
6342;SDS011;3204;42.698;23.298;2023-05-20T11:03:34;6.22;;;5.90;;
6342;SDS011;3204;42.698;23.298;2023-05-20T11:06:00;5.78;;;5.47;;
6342;SDS011;3204;42.698;23.298;2023-05-20T11:08:29;6.05;;;5.43;;
6342;SDS011;3204;42.698;23.298;2023-05-20T11:10:55;6.80;;;6.38;;
6342;SDS011;3204;42.698;23.298;2023-05-20T11:13:21;7.25;;;6.60;;
6342;SDS011;3204;42.698;23.298;2023-05-20T11:15:48;6.57;;;5.93;;
6342;SDS011;3204;42.698;23.298;2023-05-20T11:18:14;6.93;;;6.35;;
6342;SDS011;3204;42.698;23.298;2023-05-20T11:20:39;13.43;;;6.10;;
6342;SDS011;3204;42.698;23.298;2023-05-20T11:23:05;6.10;;;5.63;;
6342;SDS011;3204;42.698;23.298;2023-05-20T11:25:37;14.38;;;6.10;;
6342;SDS011;3204;42.698;23.298;2023-05-20T11:28:02;7.32;;;5.88;;
6342;SDS011;3204;42.698;23.298;2023-05-20T11:30:28;6.85;;;6.30;;
6342;SDS011;3204;42.698;23.298;2023-05-20T11:33:00;6.45;;;6.15;;
6342;SDS011;3204;42.698;23.298;2023-05-20T11:35:27;6.05;;;5.55;;
6342;SDS011;3204;42.698;23.298;2023-05-20T11:38:05;6.57;;;6.07;;
6342;SDS011;3204;42.698;23.298;2023-05-20T11:40:33;6.35;;;5.70;;
6342;SDS011;3204;42.698;23.298;2023-05-20T11:43:00;5.78;;;5.38;;
6342;SDS011;3204;42.698;23.298;2023-05-20T11:45:26;7.70;;;5.57;;
6342;SDS011;3204;42.698;23.298;2023-05-20T11:48:02;6.28;;;5.80;;
6342;SDS011;3204;42.698;23.298;2023-05-20T11:50:35;6.35;;;5.85;;
6342;SDS011;3204;42.698;23.298;2023-05-20T11:53:04;5.97;;;5.43;;
6342;SDS011;3204;42.698;23.298;2023-05-20T11:55:52;6.53;;;5.93;;
6342;SDS011;3204;42.698;23.298;2023-05-20T11:58:30;6.35;;;5.82;;
6342;SDS011;3204;42.698;23.298;2023-05-20T12:00:56;6.75;;;6.10;;
6342;SDS011;3204;42.698;23.298;2023-05-20T12:03:22;6.70;;;6.18;;
6342;SDS011;3204;42.698;23.298;2023-05-20T12:05:47;7.97;;;6.03;;
6342;SDS011;3204;42.698;23.298;2023-05-20T12:08:14;6.15;;;5.65;;
6342;SDS011;3204;42.698;23.298;2023-05-20T12:10:40;6.85;;;6.45;;
6342;SDS011;3204;42.698;23.298;2023-05-20T12:13:06;6.85;;;6.15;;
6342;SDS011;3204;42.698;23.298;2023-05-20T12:15:35;6.32;;;5.82;;
6342;SDS011;3204;42.698;23.298;2023-05-20T12:18:01;6.75;;;6.15;;
6342;SDS011;3204;42.698;23.298;2023-05-20T12:20:27;9.88;;;5.72;;
6342;SDS011;3204;42.698;23.298;2023-05-20T12:22:54;8.13;;;6.50;;
6342;SDS011;3204;42.698;23.298;2023-05-20T12:25:19;6.82;;;6.25;;
6342;SDS011;3204;42.698;23.298;2023-05-20T12:27:46;7.20;;;6.57;;
6342;SDS011;3204;42.698;23.298;2023-05-20T12:30:15;8.38;;;6.18;;
6342;SDS011;3204;42.698;23.298;2023-05-20T12:32:42;6.45;;;6.05;;
6342;SDS011;3204;42.698;23.298;2023-05-20T12:35:08;6.40;;;5.72;;
6342;SDS011;3204;42.698;23.298;2023-05-20T12:37:38;6.22;;;5.72;;
6342;SDS011;3204;42.698;23.298;2023-05-20T12:40:05;6.20;;;5.82;;
6342;SDS011;3204;42.698;23.298;2023-05-20T12:42:35;11.77;;;6.13;;
6342;SDS011;3204;42.698;23.298;2023-05-20T12:45:02;6.78;;;5.93;;
6342;SDS011;3204;42.698;23.298;2023-05-20T12:47:28;4.72;;;3.22;;
6342;SDS011;3204;42.698;23.298;2023-05-20T12:49:54;3.55;;;3.30;;
6342;SDS011;3204;42.698;23.298;2023-05-20T12:52:19;7.90;;;3.80;;
6342;SDS011;3204;42.698;23.298;2023-05-20T12:54:45;3.33;;;3.00;;
6342;SDS011;3204;42.698;23.298;2023-05-20T12:57:10;4.05;;;3.75;;
6342;SDS011;3204;42.698;23.298;2023-05-20T12:59:36;3.65;;;3.45;;
6342;SDS011;3204;42.698;23.298;2023-05-20T13:02:02;3.83;;;3.63;;
6342;SDS011;3204;42.698;23.298;2023-05-20T13:04:27;3.90;;;3.70;;
6342;SDS011;3204;42.698;23.298;2023-05-20T13:06:53;4.25;;;3.95;;
6342;SDS011;3204;42.698;23.298;2023-05-20T13:09:19;4.10;;;3.90;;
6342;SDS011;3204;42.698;23.298;2023-05-20T13:11:44;4.68;;;4.40;;
6342;SDS011;3204;42.698;23.298;2023-05-20T13:14:10;4.95;;;4.50;;
6342;SDS011;3204;42.698;23.298;2023-05-20T13:16:36;5.20;;;4.82;;
6342;SDS011;3204;42.698;23.298;2023-05-20T13:19:01;6.03;;;4.10;;
6342;SDS011;3204;42.698;23.298;2023-05-20T13:21:27;4.85;;;4.55;;
6342;SDS011;3204;42.698;23.298;2023-05-20T13:23:52;4.95;;;4.47;;
6342;SDS011;3204;42.698;23.298;2023-05-20T13:26:18;4.88;;;4.25;;
6342;SDS011;3204;42.698;23.298;2023-05-20T13:28:43;4.85;;;4.55;;
6342;SDS011;3204;42.698;23.298;2023-05-20T13:31:09;4.88;;;4.47;;
6342;SDS011;3204;42.698;23.298;2023-05-20T13:33:34;5.65;;;4.57;;
6342;SDS011;3204;42.698;23.298;2023-05-20T13:36:00;5.05;;;4.70;;
6342;SDS011;3204;42.698;23.298;2023-05-20T13:38:26;4.85;;;4.45;;
6342;SDS011;3204;42.698;23.298;2023-05-20T13:40:52;5.80;;;5.25;;
6342;SDS011;3204;42.698;23.298;2023-05-20T13:43:17;5.25;;;4.85;;
6342;SDS011;3204;42.698;23.298;2023-05-20T13:45:43;5.30;;;4.93;;
6342;SDS011;3204;42.698;23.298;2023-05-20T13:48:08;8.60;;;5.13;;
6342;SDS011;3204;42.698;23.298;2023-05-20T13:50:33;5.60;;;4.97;;
6342;SDS011;3204;42.698;23.298;2023-05-20T13:53:03;5.35;;;5.15;;
6342;SDS011;3204;42.698;23.298;2023-05-20T13:55:28;5.03;;;4.72;;
6342;SDS011;3204;42.698;23.298;2023-05-20T13:57:54;5.55;;;5.13;;
6342;SDS011;3204;42.698;23.298;2023-05-20T14:00:19;5.22;;;4.93;;
6342;SDS011;3204;42.698;23.298;2023-05-20T14:02:45;5.07;;;4.78;;
6342;SDS011;3204;42.698;23.298;2023-05-20T14:05:11;5.32;;;5.00;;
6342;SDS011;3204;42.698;23.298;2023-05-20T14:07:37;5.32;;;5.03;;
6342;SDS011;3204;42.698;23.298;2023-05-20T14:10:03;5.30;;;5.00;;
6342;SDS011;3204;42.698;23.298;2023-05-20T14:12:30;5.47;;;5.07;;
6342;SDS011;3204;42.698;23.298;2023-05-20T14:14:55;5.30;;;4.80;;
6342;SDS011;3204;42.698;23.298;2023-05-20T14:17:21;5.60;;;5.13;;
6342;SDS011;3204;42.698;23.298;2023-05-20T14:19:47;6.35;;;5.30;;
6342;SDS011;3204;42.698;23.298;2023-05-20T14:22:12;5.68;;;5.38;;
6342;SDS011;3204;42.698;23.298;2023-05-20T14:24:39;5.53;;;5.22;;
6342;SDS011;3204;42.698;23.298;2023-05-20T14:27:05;5.57;;;5.18;;
6342;SDS011;3204;42.698;23.298;2023-05-20T14:29:30;7.57;;;6.18;;
6342;SDS011;3204;42.698;23.298;2023-05-20T14:31:56;5.35;;;4.95;;
6342;SDS011;3204;42.698;23.298;2023-05-20T14:34:21;5.68;;;5.38;;
6342;SDS011;3204;42.698;23.298;2023-05-20T14:36:47;4.95;;;4.65;;
6342;SDS011;3204;42.698;23.298;2023-05-20T14:39:12;5.60;;;5.20;;
6342;SDS011;3204;42.698;23.298;2023-05-20T14:41:38;5.72;;;5.43;;
6342;SDS011;3204;42.698;23.298;2023-05-20T14:44:03;5.78;;;5.40;;
6342;SDS011;3204;42.698;23.298;2023-05-20T14:46:29;7.03;;;6.32;;
6342;SDS011;3204;42.698;23.298;2023-05-20T14:48:55;5.85;;;5.53;;
6342;SDS011;3204;42.698;23.298;2023-05-20T14:51:20;6.28;;;5.85;;
6342;SDS011;3204;42.698;23.298;2023-05-20T14:53:46;6.28;;;5.82;;
6342;SDS011;3204;42.698;23.298;2023-05-20T14:56:12;7.47;;;6.90;;